Accueil
METAR-TAF:

METAR-TAF

Aéroports :

Cranfield, Angleterre

latitude: 52-04N, longitude: 000-37W, altitude: 111 m

Observation

Le bulletin a été fait il y a 7 heures et 33 minutes, à 17:50 UTC
Vent 10 kt de ouest/sud-ouest
Température 7°C
Humidité 81%
Pression 1000 hPa
Visibilité: 8000 m
Quelques nuages à une hauteur de 3900 ft

METAR: EGTC 111750Z 24010KT 8000 FEW039 07/04 Q1000

Heure: 01:23 (01:23 UTC)

Prévision

Le bulletin a été fait il y a 11 heures et 23 minutes, à 14:00 UTC
Prévision valable du 11 à 15 UTC au 11 à 18 UTC
Vent 12 kt de ouest
Visibilité 10 km ou plus
Nuages épars à une hauteur de 3000 ft
Probabilité 30% :
Temporairement
du 11 à 15 UTC au 11 à 18 UTC
Vent 15 kt de ouest avec des rafales jusqu'à 25 kt
Visibilité: 7000 m
averses de pluie

TAF: EGTC 111400Z 1115/1118 26012KT 9999 SCT030 PROB30 TEMPO 1115/1118 27015G25KT 7000 SHRA

Observations et prévisions météorologiques de plus de 4000 aéroports (messages METAR et TAF).

Les stations disponibles sont représentées par des disques jaunes et rouges sur la carte.

Passer la souris dessus pour voir le nom de la station.

Cliquer dessus pour voir les observations et prévisions météorologiques.

Pour changer de carte: cliquez sur les boutons verts avec une croix noire pour zoomer, sur le bouton vert avec un tiret pour effectuer un zoom arrière, ou sur les flèches vertes pour les cartes adjacentes.


METAR-TAF: